Latest Weather Observations for Sheffield

IDT60801

Issued at 3:02 pm EST Saturday 18 April 2015 (issued every 30 minutes, with the page automatically refreshed every 10 minutes)

About weather observations | Map of weather stations | Latest weather observations for TAS | Other Formats
Station Details ID: 091291 Name: SHEFFIELD SCHOOL FARM Lat: -41.39 Lon: 146.32 Height: 294.2 m
Data from the previous 72 hours. | See also: Recent months at Sheffield
Date/Time
EST
Temp
°C
App
Temp
°C
Dew
Point
Rel
Hum
%
Delta-T
°C
Wind Press
QNH
hPa
Press
MSL
hPa
Rain
since 9 am
mm
Dir
 
Spd
km/h
Gust
km/h
Spd
kts
Gust
kts
18/03:00pm 12.6 9.7 11.0 90 0.9 NW 17 28 9 15 1005.4 1005.3 0.0
18/02:30pm 12.8 8.5 10.7 87 1.1 NW 24 33 13 18 1005.6 1005.5 0.0
18/02:00pm 13.1 8.2 9.9 81 1.7 NW 26 39 14 21 1005.7 1005.6 0.0
18/01:30pm 13.8 9.2 9.6 76 2.2 NNW 24 32 13 17 1005.9 1005.8 0.0
18/01:00pm 15.1 10.7 8.8 66 3.3 NW 22 28 12 15 1006.3 1006.2 0.0
18/12:30pm 14.5 8.6 7.3 62 3.6 NW 28 37 15 20 1006.9 1006.9 0.0
18/12:00pm 14.3 9.1 7.1 62 3.6 NW 24 35 13 19 1007.3 1007.3 0.0
18/11:30am 14.0 8.1 7.3 64 3.3 WNW 28 39 15 21 1007.9 1007.9 0.0
18/11:00am 14.6 9.3 6.9 60 3.8 NW 24 37 13 20 1007.9 1007.9 0.0
18/10:30am 13.7 8.8 8.3 70 2.7 WNW 24 35 13 19 1008.4 1008.3 0.0
18/10:00am 12.8 8.5 7.9 72 2.5 NW 20 32 11 17 1008.4 1008.3 0.0
18/09:30am 12.1 7.9 7.4 73 2.3 NW 19 26 10 14 1008.9 1008.8 0.0
18/09:00am 11.8 8.4 9.2 84 1.3 NW 17 26 9 14 1009.3 1009.2 0.0
18/08:30am 10.7 9.4 9.1 90 0.8 NW 6 9 3 5 1009.6 1009.6 0.0
18/08:00am 10.1 8.2 8.9 92 0.6 NNW 9 11 5 6 1009.5 1009.4 0.0
18/07:30am 9.0 6.8 7.9 93 0.5 NW 9 13 5 7 1009.4 1009.3 0.0
18/07:00am 9.2 6.3 8.3 94 0.4 NW 13 17 7 9 1009.2 1009.1 0.0
18/06:30am 8.8 6.6 8.0 95 0.4 WNW 9 13 5 7 1009.1 1009.0 0.0
18/06:00am 8.0 6.2 7.1 94 0.4 W 6 7 3 4 1009.0 1008.9 0.0
18/05:30am 8.4 7.4 7.5 94 0.4 W 2 4 1 2 1008.9 1008.8 0.0
18/05:00am 8.3 6.6 7.4 94 0.4 W 6 9 3 5 1009.1 1009.0 0.0
18/04:30am 9.0 7.7 7.8 92 0.6 WNW 4 4 2 2 1009.2 1009.1 0.0
18/04:00am 9.3 8.1 8.1 92 0.6 W 4 6 2 3 1009.3 1009.2 0.0
18/03:30am 9.5 9.0 7.8 89 0.8 CALM 0 0 0 0 1009.6 1009.6 0.0
18/03:00am 9.6 8.7 7.9 89 0.8 N 2 2 1 1 1009.9 1009.9 0.0
18/02:30am 9.7 9.2 8.0 89 0.8 CALM 0 0 0 0 1010.5 1010.5 0.0
18/02:00am 9.7 8.9 8.0 89 0.8 N 2 4 1 2 1011.2 1011.2 0.0
18/01:30am 9.7 9.2 8.0 89 0.8 CALM 0 0 0 0 1011.6 1011.6 0.0
18/01:00am 9.9 9.5 8.2 89 0.8 CALM 0 0 0 0 1012.3 1012.2 0.0
18/12:30am 9.5 8.6 7.8 89 0.8 E 2 4 1 2 1012.5 1012.5 0.0
18/12:00am 10.0 9.6 8.1 88 0.9 CALM 0 0 0 0 1013.1 1013.1 0.0
 
Date/Time
EST
Temp
°C
App
Temp
°C
Dew
Point
Rel
Hum
%
Delta-T
°C
Wind Press
QNH
hPa
Press
MSL
hPa
Rain
since 9 am
mm
Dir
 
Spd
km/h
Gust
km/h
Spd
kts
Gust
kts
17/11:30pm 10.1 9.6 8.0 87 1.0 CALM 0 0 0 0 1013.7 1013.7 0.0
17/11:00pm 10.1 9.6 8.0 87 1.0 CALM 0 0 0 0 1013.8 1013.8 0.0
17/10:30pm 10.3 9.9 8.2 87 1.0 CALM 0 0 0 0 1014.7 1014.7 0.0
17/10:00pm 10.4 10.0 8.2 86 1.1 CALM 0 0 0 0 1015.0 1015.0 0.0
17/09:30pm 10.2 9.8 8.1 87 1.0 CALM 0 0 0 0 1015.3 1015.4 0.0
17/09:00pm 10.0 9.5 7.9 87 1.0 CALM 0 2 0 1 1015.7 1015.7 0.0
17/08:30pm 9.8 8.0 7.9 88 0.9 NW 7 9 4 5 1015.9 1015.9 0.0
17/08:00pm 10.1 8.9 7.9 86 1.1 NNW 4 6 2 3 1015.9 1015.9 0.0
17/07:30pm 10.4 8.8 8.0 85 1.2 NW 6 7 3 4 1016.2 1016.2 0.0
17/07:00pm 10.8 8.3 8.0 83 1.4 NW 11 13 6 7 1016.5 1016.5 0.0
17/06:30pm 10.9 8.8 8.1 83 1.4 NW 9 13 5 7 1016.3 1016.3 0.0
17/06:00pm 11.1 8.2 8.3 83 1.4 NNW 13 15 7 8 1016.1 1016.1 0.0
17/05:30pm 11.7 8.9 8.4 80 1.7 NNW 13 19 7 10 1016.2 1016.2 0.0
17/05:00pm 12.3 8.8 8.6 78 1.9 NNW 17 22 9 12 1016.2 1016.2 0.0
17/04:30pm 13.0 9.8 8.5 74 2.3 NNW 15 20 8 11 1016.1 1016.1 0.0
17/04:00pm 13.7 9.8 8.5 71 2.6 NNW 19 24 10 13 1016.6 1016.6 0.0
17/03:30pm 14.1 10.5 8.3 68 2.9 NNW 17 22 9 12 1016.7 1016.7 0.0
17/03:00pm 14.5 10.9 8.5 67 3.1 NW 17 22 9 12 1017.2 1017.2 0.0
17/02:30pm 14.7 10.8 7.3 61 3.7 NW 17 24 9 13 1017.5 1017.5 0.0
17/02:00pm 15.1 10.8 7.2 59 3.9 WNW 19 26 10 14 1017.6 1017.6 0.0
17/01:30pm 14.8 10.4 7.4 61 3.7 NW 20 26 11 14 1018.0 1018.0 0.0
17/01:00pm 14.9 10.8 7.9 63 3.5 WNW 19 26 10 14 1018.4 1018.5 0.0
17/12:30pm 15.6 12.1 8.8 64 3.5 NW 17 24 9 13 1019.0 1019.1 0.0
17/12:00pm 15.4 12.2 8.6 64 3.5 WNW 15 22 8 12 1019.8 1019.8 0.0
17/11:30am 13.7 9.8 7.2 65 3.2 NW 17 24 9 13 1020.5 1020.5 0.0
17/11:00am 14.3 11.0 8.0 66 3.2 NW 15 26 8 14 1020.9 1020.9 0.0
17/10:30am 13.4 10.5 8.3 71 2.6 NW 13 20 7 11 1021.1 1021.1 0.0
17/10:00am 12.6 9.4 8.3 75 2.2 NW 15 20 8 11 1021.5 1021.6 0.0
17/09:30am 11.4 8.5 9.7 89 0.9 NNW 15 20 8 11 1021.8 1021.9 0.0
17/09:00am 10.1 7.4 9.0 93 0.5 NNW 13 19 7 10 1022.3 1022.4 0.0
17/08:30am 9.1 7.7 8.8 98 0.1 N 6 7 3 4 1022.0 1022.1 0.0
17/08:00am 7.8 5.9 7.5 98 0.1 NNW 7 9 4 5 1022.3 1022.4 0.0
17/07:30am 7.2 5.7 6.8 97 0.2 E 4 6 2 3 1022.1 1022.2 0.0
17/07:00am 6.7 4.1 6.3 97 0.2 NW 9 9 5 5 1021.9 1022.0 0.0
17/06:30am 7.3 5.3 6.9 97 0.2 NW 7 9 4 5 1021.6 1021.7 0.0
17/06:00am 8.1 6.4 7.5 96 0.3 NNW 6 7 3 4 1021.6 1021.7 0.0
17/05:30am 8.0 6.3 7.4 96 0.3 NNW 6 7 3 4 1021.4 1021.5 0.0
17/05:00am 8.5 6.9 8.1 97 0.2 N 6 9 3 5 1021.1 1021.1 0.0
17/04:30am 7.8 6.4 7.4 97 0.2 E 4 7 2 4 1021.0 1021.0 0.0
17/04:00am 7.3 4.4 6.7 96 0.3 NW 11 15 6 8 1021.0 1021.0 0.0
17/03:30am 6.9 3.9 6.2 95 0.3 NW 11 13 6 7 1020.9 1020.9 0.0
17/03:00am 7.7 4.5 7.0 95 0.3 NW 13 19 7 10 1020.9 1020.9 0.0
17/02:30am 7.3 4.8 6.4 94 0.4 NNW 9 13 5 7 1021.1 1021.1 0.0
17/02:00am 7.4 4.9 6.5 94 0.4 NW 9 15 5 8 1021.6 1021.7 0.0
17/01:30am 7.2 4.2 6.1 93 0.5 NW 11 13 6 7 1021.7 1021.8 0.0
17/01:00am 7.6 4.3 6.2 91 0.6 NNW 13 15 7 8 1022.0 1022.1 0.0
17/12:30am 8.0 5.0 6.0 87 0.9 NW 11 15 6 8 1022.3 1022.4 0.0
17/12:00am 8.3 5.0 6.3 87 0.9 NNW 13 17 7 9 1022.5 1022.6 0.0
 
Date/Time
EST
Temp
°C
App
Temp
°C
Dew
Point
Rel
Hum
%
Delta-T
°C
Wind Press
QNH
hPa
Press
MSL
hPa
Rain
since 9 am
mm
Dir
 
Spd
km/h
Gust
km/h
Spd
kts
Gust
kts
16/11:30pm 8.9 6.0 6.5 85 1.1 NNW 11 13 6 7 1023.1 1023.1 0.0
16/11:00pm 9.3 6.0 6.6 83 1.3 NNW 13 15 7 8 1023.1 1023.1 0.0
16/10:30pm 9.1 5.8 6.2 82 1.4 NNW 13 17 7 9 1023.0 1023.0 0.0
16/10:00pm 9.1 5.4 6.2 82 1.4 NNW 15 17 8 9 1023.1 1023.1 0.0
16/09:30pm 8.8 5.7 5.7 81 1.4 NNW 11 15 6 8 1023.1 1023.1 0.0
16/09:00pm 8.9 6.2 5.5 79 1.6 NNW 9 13 5 7 1023.0 1023.0 0.0
16/08:30pm 10.0 6.8 5.2 72 2.2 W 11 15 6 8 1022.8 1022.8 0.0
16/08:00pm 9.5 7.1 5.1 74 2.0 NW 7 13 4 7 1022.7 1022.7 0.0
16/07:30pm 10.4 7.7 5.4 71 2.3 WNW 9 17 5 9 1022.3 1022.4 0.0
16/07:00pm 10.6 7.5 5.4 70 2.4 W 11 19 6 10 1022.3 1022.4 0.0
16/06:30pm 10.6 7.4 4.9 68 2.6 W 11 19 6 10 1022.0 1022.1 0.0
16/06:00pm 10.7 7.5 5.3 69 2.5 W 11 13 6 7 1021.7 1021.8 0.0
16/05:30pm 10.7 6.6 4.6 66 2.8 WSW 15 20 8 11 1021.4 1021.5 0.0
16/05:00pm 11.4 6.6 4.6 63 3.1 WSW 19 28 10 15 1021.0 1021.0 0.0
16/04:30pm 11.9 7.4 4.2 59 3.5 WSW 17 22 9 12 1020.8 1020.8 0.0
16/04:00pm 13.2 7.2 5.4 59 3.7 WSW 26 35 14 19 1020.8 1020.8 0.0
16/03:30pm 13.5 8.0 5.7 59 3.7 W 24 37 13 20 1020.7 1020.7 0.0
16/03:00pm 13.8 7.4 5.2 56 4.1 W 28 37 15 20 1020.3 1020.3 0.0
16/02:30pm 14.1 7.8 5.5 56 4.1 WSW 28 43 15 23 1020.2 1020.2 0.0
16/02:00pm 14.5 9.0 5.8 56 4.2 W 24 33 13 18 1020.1 1020.1 0.0
16/01:30pm 14.7 9.2 6.0 56 4.2 W 24 33 13 18 1020.1 1020.1 0.0
16/01:00pm 14.2 8.2 5.3 55 4.2 W 26 35 14 19 1020.0 1020.0 0.0
16/12:30pm 14.2 9.0 5.3 55 4.3 WSW 22 32 12 17 1020.2 1020.2 0.0
16/12:00pm 14.3 9.7 5.4 55 4.2 WSW 19 30 10 16 1020.3 1020.3 0.0
16/11:30am 13.9 9.6 5.3 56 4.1 W 17 24 9 13 1020.6 1020.6 0.0
16/11:00am 13.8 10.1 6.2 60 3.7 SSW 15 22 8 12 1020.4 1020.4 0.0
16/10:30am 13.6 9.0 5.7 59 3.8 WSW 19 24 10 13 1020.4 1020.4 0.0
16/10:00am 13.4 9.6 5.8 60 3.6 SW 15 28 8 15 1020.2 1020.2 0.0
16/09:30am 13.4 9.9 7.0 65 3.1 SW 15 22 8 12 1020.1 1020.1 0.0
16/09:00am 13.1 11.1 7.1 67 2.9 SW 7 15 4 8 1020.0 1020.0 0.2
16/08:30am 12.1 9.7 7.0 71 2.5 W 9 15 5 8 1019.9 1019.9 0.2
16/08:00am 10.9 8.4 6.5 74 2.1 W 9 13 5 7 1019.6 1019.6 0.2
16/07:30am 10.0 6.2 5.8 75 2.0 W 15 20 8 11 1018.6 1018.7 0.2
16/07:00am 10.2 6.8 5.8 74 2.1 W 13 19 7 10 1018.4 1018.5 0.2
16/06:30am 10.7 7.4 6.3 74 2.1 W 13 20 7 11 1017.9 1017.9 0.2
16/06:00am 11.2 7.3 7.3 77 1.9 WSW 17 28 9 15 1017.6 1017.6 0.2
16/05:30am 11.2 8.7 8.4 83 1.4 NW 11 17 6 9 1017.3 1017.3 0.2
16/05:00am 11.3 9.0 9.0 86 1.2 WNW 11 15 6 8 1016.6 1016.6 0.2
16/04:30am 10.8 8.9 8.9 88 1.0 NW 9 11 5 6 1016.4 1016.4 0.2
16/04:00am 11.5 10.0 9.2 86 1.2 WNW 7 9 4 5 1016.0 1016.0 0.2
16/03:30am 12.2 9.8 9.9 86 1.2 WNW 13 17 7 9 1015.7 1015.7 0.2
16/03:00am 12.3 9.1 10.0 86 1.2 WNW 17 22 9 12 1016.0 1016.0 0.2
16/02:30am 11.7 9.7 10.1 90 0.8 WNW 11 17 6 9 1016.1 1016.1 0.2
16/02:00am 11.5 10.4 10.7 95 0.4 NNW 7 11 4 6 1016.4 1016.4 0.2
16/01:30am 11.7 10.4 11.2 97 0.3 N 9 11 5 6 1016.5 1016.5 0.2
16/01:00am 12.1 10.9 11.5 96 0.3 NNW 9 11 5 6 1016.6 1016.6 0.2
16/12:30am 12.6 12.0 11.7 94 0.5 NW 6 9 3 5 1016.6 1016.6 0.2
16/12:00am 13.2 11.3 11.9 92 0.7 NW 13 19 7 10 1016.5 1016.5 0.2
 
Date/Time
EST
Temp
°C
App
Temp
°C
Dew
Point
Rel
Hum
%
Delta-T
°C
Wind Press
QNH
hPa
Press
MSL
hPa
Rain
since 9 am
mm
Dir
 
Spd
km/h
Gust
km/h
Spd
kts
Gust
kts
15/11:30pm 13.5 12.4 13.2 98 0.2 NW 11 15 6 8 1016.7 1016.7 0.2
15/11:00pm 13.4 11.9 13.1 98 0.2 NNW 13 17 7 9 1016.8 1016.8 0.2
15/10:30pm 13.6 13.8 13.1 97 0.3 N 4 7 2 4 1016.8 1016.8 0.2
15/10:00pm 13.9 13.8 13.4 97 0.3 NW 6 7 3 4 1016.8 1016.8 0.2
15/09:30pm 13.8 14.1 13.3 97 0.3 N 4 7 2 4 1016.9 1016.9 0.2
15/09:00pm 13.8 13.2 13.5 98 0.2 NNW 9 13 5 7 1016.9 1016.9 0.2
15/08:30pm 14.1 13.2 13.8 98 0.2 NNW 11 13 6 7 1016.9 1016.9 0.2
15/08:00pm 14.2 14.2 13.7 97 0.3 NNW 6 9 3 5 1016.8 1016.8 0.2
15/07:30pm 14.0 13.4 13.4 96 0.3 NNW 9 9 5 5 1016.7 1016.7 0.2
15/07:00pm 14.1 13.8 13.3 95 0.4 N 7 9 4 5 1016.6 1016.6 0.2
15/06:30pm 14.2 15.2 13.1 93 0.6 CALM 0 2 0 1 1016.7 1016.7 0.2
15/06:00pm 14.3 14.1 12.9 91 0.8 WSW 6 7 3 4 1016.5 1016.5 0.2
15/05:30pm 15.1 14.4 13.1 88 1.1 N 9 15 5 8 1016.1 1016.1 0.2
15/05:00pm 15.7 14.6 13.0 84 1.5 NNW 11 15 6 8 1016.2 1016.2 0.2
15/04:30pm 16.9 15.8 13.2 79 2.1 NNW 11 15 6 8 1016.2 1016.2 0.2
15/04:00pm 17.4 16.5 12.7 74 2.6 N 9 13 5 7 1016.0 1016.0 0.2
15/03:30pm 17.8 17.1 13.1 74 2.7 N 9 13 5 7 1016.3 1016.3 0.2

Other Formats:

Comma delimited format used in spreadsheet applications
http://www.bom.gov.au/fwo/IDT60801/IDT60801.94955.axf

JavaScript Object Notation format (JSON) in row-major order
http://www.bom.gov.au/fwo/IDT60801/IDT60801.94955.json